»·PEaware :: ASA689 KGEG-KSEA

ASA689 :: KGEG-KSEA

FLIGHT INFORMATION

Flight Status: Arrived
Operator:
Alaska Airlines
More flights by this operator :: More flights under this callsign
Pilot: Taylor M. (19061)
Aircraft: AIRBUS A320
(A320)
More flights by this aircraft type
Origin: KGEG Spokane Intl
United States
Destination: KSEA Seattle-Tacoma Intl
United States
More flights between these airports :: More routes between these airports
Route: +GEG3 TEMPL GLASR1
File this flight plan on PilotEdge
Remarks: RMK / POWERED BY SIMBRIEF
Altitude:
(Current/Filed)
30,000ft
Speed:
(Current/Filed)
450kts
Departed: 03-Jun-18 09:50 AM
Arrived: 03-Jun-18 10:30 AM
Distance/Time
Traveled:
193nm/0:40
Distance/Time
To Go:
Arrived

Flight Plot

Page will automatically refresh every two minutes.

Flight plan parsing failed; only flown route is shown


Map Options




Map Legend


Flown Route
Filed Route
Departure Airport
Arrival Airport
Navaid (VOR, NDB)
Fix

Horizontal Profiles

Position Reports

Time Latitude Longitude Heading Altitude Ground
Speed
03-Jun-18 09:24 47.625869 -117.535082 217 2362ft 0kts
03-Jun-18 09:25 47.625869 -117.535082 217 2362ft 0kts
03-Jun-18 09:26 47.625869 -117.535082 217 2362ft 0kts
03-Jun-18 09:27 47.625869 -117.535082 217 2362ft 0kts
03-Jun-18 09:28 47.625869 -117.535082 217 2362ft 0kts
03-Jun-18 09:29 47.625869 -117.535082 217 2362ft 0kts
03-Jun-18 09:30 47.625869 -117.535082 217 2362ft 0kts
03-Jun-18 09:31 47.625869 -117.535082 217 2362ft 0kts
03-Jun-18 09:32 47.625869 -117.535082 217 2362ft 0kts
03-Jun-18 09:33 47.625869 -117.535082 217 2362ft 0kts
03-Jun-18 09:34 47.625869 -117.535082 217 2362ft 0kts
03-Jun-18 09:35 47.625869 -117.535082 217 2362ft 0kts
03-Jun-18 09:36 47.625869 -117.535082 217 2362ft 0kts
03-Jun-18 09:37 47.625869 -117.535082 217 2362ft 0kts
03-Jun-18 09:38 47.625869 -117.535082 217 2362ft 0kts
03-Jun-18 09:39 47.625869 -117.535082 217 2362ft 0kts
03-Jun-18 09:40 47.625869 -117.535082 217 2362ft 0kts
03-Jun-18 09:41 47.625869 -117.535082 217 2362ft 0kts
03-Jun-18 09:42 47.626243 -117.534655 216 2361ft 0kts
03-Jun-18 09:43 47.626243 -117.534655 216 2361ft 0kts
03-Jun-18 09:44 47.626212 -117.534688 215 2361ft 0kts
03-Jun-18 09:45 47.625577 -117.533137 136 2359ft 5kts
03-Jun-18 09:46 47.625152 -117.531480 48 2358ft 4kts
03-Jun-18 09:47 47.626601 -117.529123 47 2353ft 11kts
03-Jun-18 09:48 47.629376 -117.524892 44 2348ft 17kts
03-Jun-18 09:49 47.632337 -117.520602 73 2332ft 4kts
03-Jun-18 09:50 47.627272 -117.524149 223 2349ft 107kts
03-Jun-18 09:51 47.593386 -117.570104 220 4781ft 191kts
03-Jun-18 09:52 47.572144 -117.647067 276 7180ft 256kts
03-Jun-18 09:53 47.582440 -117.759355 274 10445ft 284kts
03-Jun-18 09:54 47.594214 -117.888054 275 12127ft 353kts
03-Jun-18 09:55 47.605599 -118.011892 275 14001ft 373kts
03-Jun-18 09:56 47.619500 -118.166089 275 16415ft 381kts
03-Jun-18 09:57 47.633433 -118.322633 274 18548ft 389kts
03-Jun-18 09:58 47.647491 -118.483031 274 20379ft 398kts
03-Jun-18 09:59 47.661714 -118.648039 274 22034ft 407kts
03-Jun-18 10:00 47.678022 -118.840822 273 23819ft 415kts
03-Jun-18 10:01 47.692225 -119.012046 273 25060ft 425kts
03-Jun-18 10:02 47.704135 -119.158107 272 26066ft 431kts
03-Jun-18 10:03 47.720691 -119.365090 271 27618ft 433kts
03-Jun-18 10:04 47.734543 -119.541646 271 28027ft 431kts
03-Jun-18 10:05 47.748329 -119.716538 270 28030ft 431kts
03-Jun-18 10:06 47.761175 -119.882147 270 28030ft 429kts
03-Jun-18 10:07 47.772354 -120.028800 270 28030ft 429kts
03-Jun-18 10:08 47.785467 -120.204113 270 28030ft 429kts
03-Jun-18 10:09 47.798302 -120.379437 269 28030ft 428kts
03-Jun-18 10:10 47.810890 -120.555174 269 28030ft 429kts
03-Jun-18 10:11 47.822974 -120.727206 269 27413ft 424kts
03-Jun-18 10:12 47.835046 -120.903170 269 24315ft 436kts
03-Jun-18 10:13 47.846945 -121.081034 269 24134ft 431kts
03-Jun-18 10:14 47.858518 -121.257875 270 22583ft 434kts
03-Jun-18 10:15 47.869747 -121.433528 269 19755ft 419kts
03-Jun-18 10:16 47.879989 -121.597932 269 17005ft 403kts
03-Jun-18 10:17 47.883850 -121.752538 267 14146ft 373kts
03-Jun-18 10:18 47.865402 -121.881289 245 11891ft 287kts
03-Jun-18 10:19 47.842958 -121.988011 247 9919ft 271kts
03-Jun-18 10:20 47.819985 -122.090852 247 8702ft 243kts
03-Jun-18 10:21 47.800819 -122.178490 247 7424ft 224kts
03-Jun-18 10:22 47.777876 -122.271826 247 4391ft 250kts
03-Jun-18 10:23 47.733308 -122.307759 169 3439ft 214kts
03-Jun-18 10:24 47.676740 -122.305880 184 3025ft 209kts
03-Jun-18 10:25 47.622638 -122.306361 184 3022ft 191kts
03-Jun-18 10:26 47.578543 -122.306781 184 2683ft 150kts
03-Jun-18 10:27 47.539097 -122.307099 183 1912ft 142kts
03-Jun-18 10:28 47.500588 -122.307434 181 1176ft 139kts
03-Jun-18 10:29 47.462849 -122.307769 180 457ft 135kts
03-Jun-18 10:30 47.450090 -122.306626 91 410ft 0kts
03-Jun-18 10:31 47.450094 -122.306098 51 411ft 0kts
03-Jun-18 10:32 47.451489 -122.306295 357 419ft 10kts
03-Jun-18 10:33 47.455720 -122.306159 1 437ft 15kts
03-Jun-18 10:34 47.456535 -122.304037 175 447ft 0kts
03-Jun-18 10:35 47.456517 -122.304036 176 447ft 0kts

Navigation Log

Ident Type
Flight plan parsing failed, navigation log unavailable